Map

Track Data

SID SEASON NUMBER BASIN SUBBASIN NAME ISO_TIME NATURE LAT LON WMO_WIND WMO_PRES WMO_AGENCY TRACK_TYPE DIST2LAND LANDFALL IFLAG USA_AGENCY USA_ATCF_ID USA_LAT USA_LON USA_RECORD USA_STATUS USA_WIND USA_PRES USA_SSHS USA_R34_NE USA_R34_SE USA_R34_SW USA_R34_NW USA_R50_NE USA_R50_SE USA_R50_SW USA_R50_NW USA_R64_NE USA_R64_SE USA_R64_SW USA_R64_NW USA_POCI USA_ROCI USA_RMW USA_EYE TOKYO_LAT TOKYO_LON TOKYO_GRADE TOKYO_WIND TOKYO_PRES TOKYO_R50_DIR TOKYO_R50_LONG TOKYO_R50_SHORT TOKYO_R30_DIR TOKYO_R30_LONG TOKYO_R30_SHORT TOKYO_LAND CMA_LAT CMA_LON CMA_CAT CMA_WIND CMA_PRES HKO_LAT HKO_LON HKO_CAT HKO_WIND HKO_PRES NEWDELHI_LAT NEWDELHI_LON NEWDELHI_GRADE NEWDELHI_WIND NEWDELHI_PRES NEWDELHI_CI NEWDELHI_DP NEWDELHI_POCI REUNION_LAT REUNION_LON REUNION_TYPE REUNION_WIND REUNION_PRES REUNION_TNUM REUNION_CI REUNION_RMW REUNION_R34_NE REUNION_R34_SE REUNION_R34_SW REUNION_R34_NW REUNION_R50_NE REUNION_R50_SE REUNION_R50_SW REUNION_R50_NW REUNION_R64_NE REUNION_R64_SE REUNION_R64_SW REUNION_R64_NW BOM_LAT BOM_LON BOM_TYPE BOM_WIND BOM_PRES BOM_TNUM BOM_CI BOM_RMW BOM_R34_NE BOM_R34_SE BOM_R34_SW BOM_R34_NW BOM_R50_NE BOM_R50_SE BOM_R50_SW BOM_R50_NW BOM_R64_NE BOM_R64_SE BOM_R64_SW BOM_R64_NW BOM_ROCI BOM_POCI BOM_EYE BOM_POS_METHOD BOM_PRES_METHOD NADI_LAT NADI_LON NADI_CAT NADI_WIND NADI_PRES WELLINGTON_LAT WELLINGTON_LON WELLINGTON_WIND WELLINGTON_PRES DS824_LAT DS824_LON DS824_STAGE DS824_WIND DS824_PRES TD9636_LAT TD9636_LON TD9636_STAGE TD9636_WIND TD9636_PRES TD9635_LAT TD9635_LON TD9635_WIND TD9635_PRES TD9635_ROCI NEUMANN_LAT NEUMANN_LON NEUMANN_CLASS NEUMANN_WIND NEUMANN_PRES MLC_LAT MLC_LON MLC_CLASS MLC_WIND MLC_PRES USA_GUST BOM_GUST BOM_GUST_PER REUNION_GUST REUNION_GUST_PER USA_SEAHGT USA_SEARAD_NE USA_SEARAD_SE USA_SEARAD_SW USA_SEARAD_NW STORM_SPEED STORM_DIR
1948051S13167 1948 20 SP MM NOT_NAMED 1948-02-19 12:00:00 TS -13.3000 167.200 main 169 169 O________OO___ jtwc_sh SH151948 -13.3000 167.200 -1 -13.3000 167.200 TC -13.3000 167.200 1 1 79
1948051S13167 1948 20 SP MM NOT_NAMED 1948-02-19 15:00:00 TS -13.2923 167.229 main 169 169 P________PP___ SH151948 -13.2950 167.225 -1 -13.2950 167.225 TC -13.2869 167.238 1 1 88
1948051S13167 1948 20 SP MM NOT_NAMED 1948-02-19 18:00:00 TS -13.2963 167.307 main 174 174 O________OP___ jtwc_sh SH151948 -13.3000 167.300 -1 -13.3000 167.300 TC -13.2890 167.321 1 2 98
1948051S13167 1948 20 SP MM NOT_NAMED 1948-02-19 21:00:00 TS -13.3255 167.481 main 184 181 P________PP___ SH151948 -13.3273 167.475 -1 -13.3273 167.475 TC -13.3217 167.493 1 5 102
1948051S13167 1948 20 SP MM NOT_NAMED 1948-02-20 00:00:00 TS -13.4000 167.800 main 194 193 O________OO___ jtwc_sh SH151948 -13.4000 167.800 -1 -13.4000 167.800 TC -13.4000 167.800 1 8 104
1948051S13167 1948 20 SP MM NOT_NAMED 1948-02-20 03:00:00 TS -13.5249 168.292 main 211 210 P________PP___ SH151948 -13.5201 168.305 -1 -13.5201 168.305 TC -13.5344 168.267 1 11 106
1948051S13167 1948 20 SP MM NOT_NAMED 1948-02-20 06:00:00 TS -13.7063 168.880 main 242 242 O________OP___ jtwc_sh SH151948 -13.7000 168.900 -1 -13.7000 168.900 TC -13.7189 168.840 1 12 110
1948051S13167 1948 20 SP MM NOT_NAMED 1948-02-20 09:00:00 TS -13.9330 169.462 main 286 281 P________PP___ SH151948 -13.9275 169.472 -1 -13.9275 169.472 TC -13.9438 169.442 1 12 114
1948051S13167 1948 20 SP MM NOT_NAMED 1948-02-20 12:00:00 TS -14.2000 170.000 main 324 324 O________OO___ jtwc_sh SH151948 -14.2000 170.000 -1 -14.2000 170.000 TC -14.2000 170.000 1 11 120
1948051S13167 1948 20 SP MM NOT_NAMED 1948-02-20 15:00:00 TS -14.4865 170.438 main 344 344 P________PP___ SH151948 -14.4924 170.438 -1 -14.4924 170.438 TC -14.4749 170.440 1 10 127
1948051S13167 1948 20 SP MM NOT_NAMED 1948-02-20 18:00:00 TS -14.7924 170.807 main 362 362 O________OP___ jtwc_sh SH151948 -14.8000 170.800 -1 -14.8000 170.800 TC -14.7771 170.820 1 9 132
1948051S13167 1948 20 SP MM NOT_NAMED 1948-02-20 21:00:00 TS -15.1019 171.138 main 378 378 P________PP___ SH151948 -15.1075 171.138 -1 -15.1075 171.138 TC -15.0907 171.140 1 8 137
1948051S13167 1948 20 SP MM NOT_NAMED 1948-02-21 00:00:00 TS -15.4000 171.400 main 398 395 O________OO___ jtwc_sh SH151948 -15.4000 171.400 -1 -15.4000 171.400 TC -15.4000 171.400 1 7 142
1948051S13167 1948 20 SP MM NOT_NAMED 1948-02-21 03:00:00 TS -15.6606 171.586 main 411 410 P________PP___ SH151948 -15.6499 171.573 -1 -15.6499 171.573 TC -15.6819 171.612 1 6 149
1948051S13167 1948 20 SP MM NOT_NAMED 1948-02-21 06:00:00 TS -15.9190 171.723 main 419 418 O________OP___ jtwc_sh SH151948 -15.9000 171.700 -1 -15.9000 171.700 TC -15.9571 171.768 1 6 154
1948051S13167 1948 20 SP MM NOT_NAMED 1948-02-21 09:00:00 TS -16.2096 171.868 main 437 437 P________PP___ SH151948 -16.2000 171.857 -1 -16.2000 171.857 TC -16.2288 171.890 1 6 155
1948051S13167 1948 20 SP MM NOT_NAMED 1948-02-21 12:00:00 TS -16.5000 172.000 main 447 447 O________OO___ jtwc_sh SH151948 -16.5000 172.000 -1 -16.5000 172.000 TC -16.5000 172.000 1 6 158
1948051S13167 1948 20 SP MM NOT_NAMED 1948-02-21 15:00:00 TS -16.7583 172.107 main 458 458 P________PP___ SH151948 -16.7500 172.100 -1 -16.7500 172.100 TC -16.7749 172.120 1 6 159
1948051S13167 1948 20 SP MM NOT_NAMED 1948-02-21 18:00:00 TS -17.0166 172.212 main 470 470 O________OP___ jtwc_sh SH151948 -17.0000 172.200 -1 -17.0000 172.200 TC -17.0498 172.235 1 6 158
1948051S13167 1948 20 SP MM NOT_NAMED 1948-02-21 21:00:00 TS -17.3083 172.343 main 485 485 P________PP___ SH151948 -17.3000 172.335 -1 -17.3000 172.335 TC -17.3249 172.358 1 6 155
1948051S13167 1948 20 SP MM NOT_NAMED 1948-02-22 00:00:00 TS -17.6000 172.500 main 499 476 O________OO___ jtwc_sh SH151948 -17.6000 172.500 -1 -17.6000 172.500 TC -17.6000 172.500 1 6 150
1948051S13167 1948 20 SP MM NOT_NAMED 1948-02-22 03:00:00 TS -17.8651 172.681 main 476 454 P________PP___ SH151948 -17.8500 172.693 -1 -17.8500 172.693 TC -17.8952 172.658 1 6 146
1948051S13167 1948 20 SP MM NOT_NAMED 1948-02-22 06:00:00 TS -18.1291 172.880 main 454 435 O________OP___ jtwc_sh SH151948 -18.1000 172.900 -1 -18.1000 172.900 TC -18.1872 172.840 1 7 146
1948051S13167 1948 20 SP MM NOT_NAMED 1948-02-22 09:00:00 TS -18.4252 173.079 main 435 419 P________PP___ SH151948 -18.4075 173.093 -1 -18.4075 173.093 TC -18.4607 173.052 1 7 145
1948051S13167 1948 20 SP MM NOT_NAMED 1948-02-22 12:00:00 TS -18.7000 173.300 main 419 403 O________OO___ jtwc_sh SH151948 -18.7000 173.300 -1 -18.7000 173.300 TC -18.7000 173.300 1 7 139
1948051S13167 1948 20 SP MM NOT_NAMED 1948-02-22 15:00:00 TS -18.9204 173.526 main 403 378 P________PP___ SH151948 -18.9299 173.520 -1 -18.9299 173.520 TC -18.9014 173.537 1 6 129
1948051S13167 1948 20 SP MM NOT_NAMED 1948-02-22 18:00:00 TS -19.0887 173.805 main 378 353 O________OP___ jtwc_sh SH151948 -19.1000 173.800 -1 -19.1000 173.800 TC -19.0662 173.815 1 7 117
1948051S13167 1948 20 SP MM NOT_NAMED 1948-02-22 21:00:00 TS -19.2141 174.147 main 353 310 P________PP___ SH151948 -19.2222 174.140 -1 -19.2222 174.140 TC -19.1979 174.161 1 8 106
1948051S13167 1948 20 SP MM NOT_NAMED 1948-02-23 00:00:00 TS -19.3000 174.600 main 310 262 O________OO___ jtwc_sh SH151948 -19.3000 174.600 -1 -19.3000 174.600 TC -19.3000 174.600 1 10 98
1948051S13167 1948 20 SP MM NOT_NAMED 1948-02-23 03:00:00 TS -19.3609 175.198 main 262 214 P________PP___ SH151948 -19.3576 175.213 -1 -19.3576 175.213 TC -19.3675 175.169 1 12 95
1948051S13167 1948 20 SP MM NOT_NAMED 1948-02-23 06:00:00 TS -19.4029 175.875 main 207 168 O________OP___ jtwc_sh SH151948 -19.4000 175.900 -1 -19.4000 175.900 TC -19.4088 175.826 1 13 94
1948051S13167 1948 20 SP MM NOT_NAMED 1948-02-23 09:00:00 TS -19.4434 176.545 main 168 151 P________PP___ SH151948 -19.4423 176.558 -1 -19.4423 176.558 TC -19.4455 176.520 1 13 94
1948051S13167 1948 20 SP MM NOT_NAMED 1948-02-23 12:00:00 TS -19.5000 177.200 main 151 140 O________OO___ jtwc_sh SH151948 -19.5000 177.200 -1 -19.5000 177.200 TC -19.5000 177.200 1 12 97
1948051S13167 1948 20 SP MM NOT_NAMED 1948-02-23 15:00:00 TS -19.5908 177.813 main 145 145 P________PP___ SH151948 -19.5848 177.815 -1 -19.5848 177.815 TC -19.6028 177.809 1 11 100
1948051S13167 1948 20 SP MM NOT_NAMED 1948-02-23 18:00:00 TS -19.7089 178.398 main 158 158 O________OP___ jtwc_sh SH151948 -19.7000 178.400 -1 -19.7000 178.400 TC -19.7267 178.395 1 11 104
1948051S13167 1948 20 SP MM NOT_NAMED 1948-02-23 21:00:00 TS -19.8540 178.963 main 197 197 P________PP___ SH151948 -19.8498 178.965 -1 -19.8498 178.965 TC -19.8623 178.959 1 11 106
1948051S13167 1948 20 SP MM NOT_NAMED 1948-02-24 00:00:00 TS -20.0000 179.500 main 228 228 O________OO___ jtwc_sh SH151948 -20.0000 179.500 -1 -20.0000 179.500 TC -20.0000 179.500 1 10 105
1948051S13167 1948 20 SP MM NOT_NAMED 1948-02-24 03:00:00 TS -20.1135 180.019 main 262 262 P________PP___ SH151948 -20.0998 -179.992 -1 -20.0998 -179.992 TC -20.1409 -179.958 1 10 103
1948051S13167 1948 20 SP MM NOT_NAMED 1948-02-24 06:00:00 TS -20.2265 180.520 main 301 301 O________OP___ jtwc_sh SH151948 -20.2000 -179.500 -1 -20.2000 180.500 TC -20.2796 -179.440 1 10 105
1948051S13167 1948 20 SP MM NOT_NAMED 1948-02-24 09:00:00 TS -20.3728 181.026 main 352 352 P________PP___ SH151948 -20.3575 -178.985 -1 -20.3575 -178.985 TC -20.4035 -178.952 1 10 107
1948051S13167 1948 20 SP MM NOT_NAMED 1948-02-24 12:00:00 TS -20.5000 181.500 main 398 398 O________OO___ jtwc_sh SH151948 -20.5000 -178.500 -1 -20.5000 181.500 TC -20.5000 -178.500 1 9 103
1948051S13167 1948 20 SP MM NOT_NAMED 1948-02-24 15:00:00 TS -20.5683 181.919 main 436 436 P________PP___ SH151948 -20.5723 -178.077 -1 -20.5723 -178.077 TC -20.5602 -178.088 1 8 97
1948051S13167 1948 20 SP MM NOT_NAMED 1948-02-24 18:00:00 TS -20.5968 182.298 main 469 469 O________OP___ jtwc_sh SH151948 -20.6000 -177.700 -1 -20.6000 182.300 TC -20.5904 -177.707 1 7 93
1948051S13167 1948 20 SP MM NOT_NAMED 1948-02-24 21:00:00 TS -20.6036 182.654 main 504 504 P________PP___ SH151948 -20.6052 -177.345 -1 -20.6052 -177.345 TC -20.6004 -177.348 1 7 90
1948051S13167 1948 20 SP MM NOT_NAMED 1948-02-25 00:00:00 TS -20.6000 183.000 main 530 O________OO___ jtwc_sh SH151948 -20.6000 -177.000 -1 -20.6000 183.000 TC -20.6000 -177.000 1 6 89

Digital Typhoon Data and Search

About IBTrACS Database

This database is a web-friendly format of International Best Track Archive for Climate Stewardship (IBTrACS), a global best track data archive curated by NOAA dating back to 1842.

Updated: 2021-10-08